Time;durP1;ratioP1;P1;durP2;ratioP2;P2;SDS_P1;SDS_P2;PMS_P1;PMS_P2;Temp;Humidity;BMP_temperature;BMP_pressure;BME280_temperature;BME280_humidity;BME280_pressure;Samples;Min_cycle;Max_cycle;Signal;HPM_P1;HPM_P2
2022/06/21 00:01:55;;;;;;;6.55;3.20;;;;;;;13.42;82.09;99763.00;12209829;19;20633;-82
2022/06/21 00:05:58;;;;;;;6.88;3.08;;;;;;;13.42;82.10;99769.34;12230973;19;20042;-84
2022/06/21 00:10:00;;;;;;;6.28;2.90;;;;;;;13.39;82.33;99769.06;12204278;19;20022;-85
2022/06/21 00:14:01;;;;;;;8.75;3.47;;;;;;;13.34;82.51;99777.34;12220020;19;20099;-85
2022/06/21 00:18:04;;;;;;;9.35;3.78;;;;;;;13.33;82.73;99776.50;12235578;19;20380;-83
2022/06/21 00:22:13;;;;;;;5.90;2.70;;;;;;;13.32;82.91;99766.53;12214103;19;20032;-84
2022/06/21 00:26:16;;;;;;;7.70;3.35;;;;;;;13.32;83.16;99768.47;12223183;19;20011;-83
2022/06/21 00:30:19;;;;;;;6.60;3.25;;;;;;;13.32;83.37;99772.06;12233723;19;20011;-84
2022/06/21 00:34:22;;;;;;;5.85;3.20;;;;;;;13.31;83.66;99775.94;12208455;19;20036;-82
2022/06/21 00:38:32;;;;;;;4.43;3.22;;;;;;;13.28;84.09;99773.72;12227287;19;20006;-83
2022/06/21 00:42:38;;;;;;;9.23;4.13;;;;;;;13.26;84.24;99775.06;12235382;19;20002;-83
2022/06/21 00:46:45;;;;;;;5.43;3.58;;;;;;;13.19;84.43;99781.66;12214677;19;20514;-83
2022/06/21 00:51:06;;;;;;;8.30;3.90;;;;;;;13.17;85.04;99777.47;12239491;19;20003;-84
2022/06/21 00:55:15;;;;;;;9.15;3.83;;;;;;;13.16;85.15;99782.19;12219679;19;20015;-83
2022/06/21 00:59:20;;;;;;;6.32;3.88;;;;;;;13.12;85.74;99786.59;12239665;19;20411;-82
2022/06/21 01:03:29;;;;;;;7.43;4.45;;;;;;;13.11;85.84;99789.63;12235034;19;20007;-83
2022/06/21 01:07:31;;;;;;;5.90;3.65;;;;;;;13.10;86.02;99788.78;12206259;19;20010;-83
2022/06/21 01:11:40;;;;;;;5.63;3.55;;;;;;;13.06;86.13;99790.44;12227996;19;20038;-84
2022/06/21 01:15:45;;;;;;;8.50;4.45;;;;;;;13.04;86.74;99789.03;12233201;19;20010;-84
2022/06/21 01:19:51;;;;;;;6.43;4.22;;;;;;;12.99;87.01;99779.56;12207896;19;20046;-83
2022/06/21 01:24:08;;;;;;;7.22;4.25;;;;;;;12.96;87.41;99791.19;12223982;19;20015;-83
2022/06/21 01:28:10;;;;;;;9.15;4.00;;;;;;;12.94;87.31;99787.03;12212036;19;20415;-83
2022/06/21 01:32:11;;;;;;;6.78;3.83;;;;;;;12.93;88.20;99780.66;12225172;19;20014;-83
2022/06/21 01:36:18;;;;;;;8.75;4.43;;;;;;;12.95;88.53;99774.88;12222329;19;20044;-83
2022/06/21 01:40:26;;;;;;;9.07;4.35;;;;;;;12.97;89.08;99775.44;12199843;19;20409;-82
2022/06/21 01:44:34;;;;;;;8.68;4.55;;;;;;;12.99;88.69;99773.22;12224890;19;20025;-83
2022/06/21 01:48:47;;;;;;;6.68;4.25;;;;;;;12.97;88.83;99778.22;12223600;19;20038;-83
2022/06/21 01:52:52;;;;;;;9.20;4.95;;;;;;;12.93;89.13;99772.34;12202306;19;20010;-83
2022/06/21 01:56:54;;;;;;;6.63;4.18;;;;;;;12.92;89.33;99764.34;12225438;19;20069;-82
2022/06/21 02:01:00;;;;;;;9.57;5.32;;;;;;;12.91;89.32;99762.66;12228156;19;20044;-82
2022/06/21 02:05:07;;;;;;;7.63;4.53;;;;;;;12.87;89.83;99764.28;12196936;19;20398;-80
2022/06/21 02:09:35;;;;;;;10.43;5.38;;;;;;;12.85;90.17;99764.56;12220246;19;20524;-81
2022/06/21 02:13:43;;;;;;;8.88;5.05;;;;;;;12.82;90.15;99762.34;12199983;19;20015;-81
2022/06/21 02:17:47;;;;;;;9.35;5.07;;;;;;;12.77;90.38;99771.41;12224757;19;20015;-82
2022/06/21 02:21:49;;;;;;;9.15;5.82;;;;;;;12.73;90.21;99767.53;12230809;19;20027;-82
2022/06/21 02:25:56;;;;;;;9.30;4.78;;;;;;;12.62;91.40;99751.97;12204455;19;20078;-82
2022/06/21 02:30:01;;;;;;;7.28;5.13;;;;;;;12.62;91.29;99754.72;12226683;19;20073;-82
2022/06/21 02:34:11;;;;;;;9.63;5.18;;;;;;;12.57;92.50;99738.09;12237259;19;20017;-82
2022/06/21 02:38:50;;;;;;;8.02;5.10;;;;;;;12.58;93.12;99734.22;12205361;19;20007;-82
2022/06/21 02:43:01;;;;;;;7.30;4.47;;;;;;;12.59;92.86;99730.38;12226863;19;20044;-82
2022/06/21 02:47:12;;;;;;;8.75;5.18;;;;;;;12.58;92.68;99742.50;12207654;19;20445;-82
2022/06/21 02:51:21;;;;;;;8.65;4.93;;;;;;;12.54;93.67;99730.31;12235148;19;20045;-82
2022/06/21 02:55:36;;;;;;;6.88;5.07;;;;;;;12.51;93.24;99739.16;12216904;19;20329;-84
2022/06/21 02:59:41;;;;;;;9.10;5.22;;;;;;;12.44;93.68;99722.78;12275686;19;19995;-82
2022/06/21 03:03:44;;;;;;;7.78;4.78;;;;;;;12.41;93.94;99728.84;12275977;19;20031;-83
2022/06/21 03:07:54;;;;;;;5.93;4.60;;;;;;;12.41;93.64;99747.38;12253950;19;20023;-82
2022/06/21 03:12:04;;;;;;;8.63;4.38;;;;;;;12.41;93.73;99736.31;12277309;19;20003;-82
2022/06/21 03:16:10;;;;;;;6.53;4.45;;;;;;;12.39;93.43;99741.25;12277807;19;20007;-82
2022/06/21 03:20:21;;;;;;;9.20;3.92;;;;;;;12.40;93.34;99746.50;12264067;19;20072;-82
2022/06/21 03:24:25;;;;;;;7.72;4.55;;;;;;;12.40;93.44;99734.63;12278074;19;19999;-81
2022/06/21 03:28:41;;;;;;;7.47;4.63;;;;;;;12.37;93.68;99733.22;12247490;19;20075;-82
2022/06/21 03:32:43;;;;;;;6.40;4.05;;;;;;;12.38;93.98;99731.31;12266050;19;20105;-83
2022/06/21 03:36:45;;;;;;;8.00;4.20;;;;;;;12.39;94.06;99716.41;12266801;19;20006;-82
2022/06/21 03:45:31;;;;;;;4.95;3.55;;;;;;;12.42;94.56;99710.34;12263669;19;20023;-82
2022/06/21 03:55:06;;;;;;;7.38;4.40;;;;;;;12.48;94.18;99703.75;12274646;19;20017;-85
2022/06/21 03:59:21;;;;;;;6.90;4.20;;;;;;;12.49;94.85;99694.34;12253649;19;20007;-83
2022/06/21 04:03:42;;;;;;;5.50;4.90;;;;;;;12.52;94.50;99689.16;12272337;19;20011;-84
2022/06/21 04:07:54;;;;;;;11.52;4.35;;;;;;;12.53;94.80;99681.69;12248737;19;20002;-84
2022/06/21 04:12:09;;;;;;;8.05;4.13;;;;;;;12.58;94.39;99676.16;12270462;19;20007;-84
2022/06/21 04:16:22;;;;;;;8.85;3.92;;;;;;;12.59;93.92;99677.84;12244919;19;20034;-83
2022/06/21 04:20:39;;;;;;;6.30;3.90;;;;;;;12.54;93.95;99664.81;12278047;19;20009;-83
2022/06/21 04:24:48;;;;;;;6.53;3.88;;;;;;;12.54;94.33;99664.00;12271795;19;20014;-84
2022/06/21 04:29:01;;;;;;;8.52;4.03;;;;;;;12.57;94.53;99668.16;12242272;19;20023;-84
2022/06/21 04:33:07;;;;;;;;;;;;;;;12.59;94.64;99677.84;12262294;19;20011;-84
2022/06/21 04:37:19;;;;;;;5.78;3.50;;;;;;;12.58;94.26;99683.63;12245813;19;19923;-84
2022/06/21 04:41:31;;;;;;;9.73;4.03;;;;;;;12.62;94.90;99688.38;12235406;19;20014;-84
2022/06/21 04:45:35;;;;;;;7.00;3.70;;;;;;;12.71;95.24;99685.94;12246559;19;20009;-82
2022/06/21 04:49:47;;;;;;;6.43;4.30;;;;;;;12.77;95.39;99682.13;12227807;19;20130;-83
2022/06/21 04:54:01;;;;;;;8.85;4.70;;;;;;;12.84;95.83;99684.63;12228708;19;20022;-82
2022/06/21 04:58:02;;;;;;;7.57;4.90;;;;;;;12.93;95.95;99683.84;12198192;19;20530;-81
2022/06/21 05:02:09;;;;;;;11.75;4.78;;;;;;;13.05;95.92;99677.28;12186937;19;20017;-81
2022/06/21 05:06:13;;;;;;;7.07;4.95;;;;;;;13.14;96.21;99668.19;12202390;19;20010;-82
2022/06/21 05:10:23;;;;;;;9.73;5.25;;;;;;;13.25;96.49;99674.63;12181088;19;20015;-80
2022/06/21 05:14:30;;;;;;;6.20;4.80;;;;;;;13.37;96.18;99688.22;12198956;19;20590;-82
2022/06/21 05:18:40;;;;;;;9.95;5.15;;;;;;;13.47;96.60;99693.78;12205886;19;20013;-80
2022/06/21 05:22:48;;;;;;;8.52;5.63;;;;;;;13.57;96.47;99688.31;12188471;19;20097;-82
2022/06/21 05:27:04;;;;;;;8.63;5.95;;;;;;;13.71;96.08;99698.84;12196045;19;20042;-81
2022/06/21 05:31:23;;;;;;;8.18;6.18;;;;;;;13.86;95.68;99701.63;12211522;19;20046;-82
2022/06/21 05:35:28;;;;;;;9.75;5.53;;;;;;;14.00;95.14;99702.78;12186208;19;20014;-83
2022/06/21 05:39:38;;;;;;;9.52;5.35;;;;;;;14.18;93.92;99692.25;12203997;19;20472;-82
2022/06/21 05:43:42;;;;;;;7.03;5.38;;;;;;;14.33;93.17;99695.03;12185643;19;20016;-82
2022/06/21 05:47:51;;;;;;;8.80;4.60;;;;;;;14.50;92.31;99701.13;12182619;19;20010;-82
2022/06/21 05:51:56;;;;;;;6.18;4.50;;;;;;;14.73;91.36;99715.56;12194526;19;20014;-82
2022/06/21 05:56:04;;;;;;;9.82;5.35;;;;;;;14.96;89.96;99714.97;12181331;19;20370;-82
2022/06/21 06:00:34;;;;;;;7.68;5.07;;;;;;;15.17;88.68;99695.47;12188855;19;20010;-81
2022/06/21 06:04:49;;;;;;;7.22;5.28;;;;;;;15.38;87.88;99691.50;12177593;19;20010;-82
2022/06/21 06:08:57;;;;;;;8.93;5.43;;;;;;;15.55;86.71;99687.53;12207302;19;20056;-82
2022/06/21 06:13:07;;;;;;;6.53;4.80;;;;;;;15.74;86.29;99691.34;12202079;19;20499;-82
2022/06/21 06:17:23;;;;;;;6.55;4.47;;;;;;;15.90;85.33;99678.19;12179215;19;20006;-82
2022/06/21 06:21:33;;;;;;;7.65;4.65;;;;;;;16.00;83.85;99678.09;12204682;19;20022;-82
2022/06/21 06:25:54;;;;;;;8.80;5.03;;;;;;;16.24;83.51;99686.56;12196434;19;20050;-81
2022/06/21 06:30:02;;;;;;;9.52;4.53;;;;;;;16.45;82.14;99689.13;12216677;19;20453;-81
2022/06/21 06:34:14;;;;;;;4.93;3.72;;;;;;;16.69;80.81;99700.34;12194844;19;20070;-81
2022/06/21 06:38:17;;;;;;;8.20;4.80;;;;;;;16.90;79.70;99706.56;12179503;19;20017;-81
2022/06/21 06:42:25;;;;;;;11.35;5.18;;;;;;;17.02;78.85;99704.22;12195404;19;20052;-82
2022/06/21 06:46:35;;;;;;;4.55;2.90;;;;;;;17.18;78.00;99721.56;12179900;19;20042;-82
2022/06/21 06:50:47;;;;;;;7.15;4.05;;;;;;;17.35;76.96;99712.75;12191950;19;20013;-81
2022/06/21 06:55:11;;;;;;;6.63;4.10;;;;;;;17.47;75.24;99725.09;12201544;19;20002;-82
2022/06/21 06:59:14;;;;;;;6.32;3.50;;;;;;;17.70;75.26;99734.56;12191642;19;20049;-82
2022/06/21 07:03:30;;;;;;;8.52;3.88;;;;;;;17.94;72.71;99734.53;12185899;19;20066;-82
2022/06/21 07:07:42;;;;;;;6.25;3.60;;;;;;;18.06;70.61;99745.25;12184412;19;20472;-82
2022/06/21 07:11:52;;;;;;;8.52;4.00;;;;;;;18.27;70.25;99733.78;12203633;19;20459;-81
2022/06/21 07:15:57;;;;;;;9.02;3.92;;;;;;;18.51;69.56;99730.91;12197479;19;20058;-83
2022/06/21 07:19:59;;;;;;;7.20;4.93;;;;;;;18.60;67.21;99745.81;12184820;19;20438;-82
2022/06/21 07:24:01;;;;;;;6.77;4.30;;;;;;;18.92;66.95;99760.91;12206054;19;20007;-82
2022/06/21 07:28:20;;;;;;;7.20;4.60;;;;;;;19.21;66.59;99752.28;12215472;19;20456;-84
2022/06/21 07:32:37;;;;;;;6.55;3.72;;;;;;;19.51;65.32;99748.03;12210153;19;20013;-83
2022/06/21 07:36:51;;;;;;;6.20;3.70;;;;;;;19.78;63.08;99744.41;12202649;19;20014;-83
2022/06/21 07:41:02;;;;;;;8.23;3.92;;;;;;;19.94;61.09;99742.94;12187762;19;20018;-82
2022/06/21 07:45:20;;;;;;;7.43;3.50;;;;;;;20.16;59.96;99724.56;12206819;19;20006;-83
2022/06/21 07:49:38;;;;;;;7.68;3.80;;;;;;;20.30;58.38;99710.53;12181920;19;20010;-81
2022/06/21 07:54:06;;;;;;;7.93;3.78;;;;;;;20.29;58.21;99703.28;12214925;19;20015;-83
2022/06/21 07:58:24;;;;;;;6.63;3.33;;;;;;;20.51;58.67;99700.47;12216114;19;21637;-83
2022/06/21 08:07:13;;;;;;;8.30;4.25;;;;;;;20.95;57.77;99648.38;12222977;19;20018;-82
2022/06/21 08:11:22;;;;;;;8.85;3.50;;;;;;;21.06;57.09;99606.88;12191046;19;20038;-85
2022/06/21 08:15:30;;;;;;;9.20;3.30;;;;;;;21.19;56.38;99561.09;12231911;19;20011;-84
2022/06/21 08:19:36;;;;;;;4.90;2.75;;;;;;;21.48;55.73;99492.44;12211963;19;20394;-83
2022/06/21 08:23:49;;;;;;;5.35;3.70;;;;;;;21.54;54.25;99491.91;12227316;19;19999;-83
2022/06/21 08:28:50;;;;;;;6.05;3.25;;;;;;;21.66;52.69;99522.09;12225814;19;20026;-88
2022/06/21 08:38:40;;;;;;;6.80;2.80;;;;;;;22.47;48.66;99546.53;12204456;19;20020;-84
2022/06/21 08:43:00;;;;;;;19.08;4.20;;;;;;;22.14;46.58;99565.09;12214649;19;20006;-87
2022/06/21 08:47:22;;;;;;;3.78;2.15;;;;;;;22.56;47.62;99566.16;12161838;19;20120;-85
2022/06/21 08:52:02;;;;;;;7.00;2.80;;;;;;;22.70;46.27;99560.34;12207483;19;20178;-83
2022/06/21 08:56:24;;;;;;;7.03;3.00;;;;;;;22.50;45.84;99556.28;12191377;19;20065;-86
2022/06/21 09:00:42;;;;;;;4.53;2.40;;;;;;;22.70;46.09;99549.94;12217149;19;20014;-85
2022/06/21 09:05:12;;;;;;;4.75;2.20;;;;;;;23.23;44.31;99539.25;12181962;19;20025;-84
2022/06/21 09:09:36;;;;;;;6.35;2.40;;;;;;;24.17;43.08;99550.03;12197079;19;20007;-82
2022/06/21 09:14:06;;;;;;;3.60;2.13;;;;;;;24.59;41.69;99574.47;12182628;19;21082;-84
2022/06/21 09:18:17;;;;;;;7.53;2.33;;;;;;;24.14;40.52;99580.88;12218005;19;20010;-83
2022/06/21 09:22:51;;;;;;;3.60;2.15;;;;;;;23.90;40.78;99584.41;12193704;19;20017;-84
2022/06/21 09:27:05;;;;;;;3.70;1.90;;;;;;;24.33;40.47;99592.44;12215222;19;20379;-85
2022/06/21 09:31:30;;;;;;;3.90;2.05;;;;;;;24.63;40.69;99593.13;12220052;19;20007;-83
2022/06/21 09:35:50;;;;;;;3.72;1.88;;;;;;;24.75;39.84;99583.88;12187396;19;20084;-83
2022/06/21 09:40:09;;;;;;;4.20;2.30;;;;;;;24.92;38.94;99592.09;12217750;19;20019;-84
2022/06/21 09:44:50;;;;;;;5.38;2.10;;;;;;;24.64;38.08;99586.31;12194123;19;20383;-83
2022/06/21 09:49:03;;;;;;;5.97;2.00;;;;;;;25.17;39.45;99581.69;12212467;19;20021;-84
2022/06/21 09:53:21;;;;;;;4.07;1.92;;;;;;;25.29;39.22;99583.69;12192238;19;20011;-84
2022/06/21 09:57:46;;;;;;;3.95;1.88;;;;;;;25.15;38.83;99578.38;12214775;19;20014;-83
2022/06/21 10:02:08;;;;;;;5.22;2.15;;;;;;;25.15;38.39;99574.75;12197290;19;20035;-85
2022/06/21 10:06:46;;;;;;;2.90;1.80;;;;;;;25.40;38.41;99564.25;12210826;19;20011;-84
2022/06/21 10:16:05;;;;;;;5.22;2.53;;;;;;;25.41;38.22;99549.81;12208967;19;20015;-84
2022/06/21 10:20:13;;;;;;;4.85;2.35;;;;;;;25.51;38.04;99547.66;12186815;19;20015;-85
2022/06/21 10:24:41;;;;;;;8.48;2.10;;;;;;;25.72;37.51;99542.66;12216385;19;20010;-81
2022/06/21 10:29:14;;;;;;;4.13;2.35;;;;;;;25.80;36.91;99536.06;12137041;19;20011;-83
2022/06/21 10:33:47;;;;;;;2.00;1.77;;;;;;;25.92;35.74;99521.91;12232103;19;20087;-83
2022/06/21 10:38:30;;;;;;;3.45;1.83;;;;;;;26.24;35.89;99526.81;12175415;19;20006;-84
2022/06/21 10:43:11;;;;;;;4.43;1.80;;;;;;;26.32;35.55;99525.81;12154540;19;20023;-85
2022/06/21 10:47:37;;;;;;;4.53;2.13;;;;;;;26.63;35.98;99524.25;12204538;19;20018;-84
2022/06/21 10:52:18;;;;;;;4.25;1.90;;;;;;;26.96;35.36;99523.84;12223137;19;20003;-83
2022/06/21 11:22:28;;;;;;;3.75;1.70;;;;;;;28.52;31.61;99485.06;12210588;19;20010;-85
2022/06/21 11:31:34;;;;;;;6.18;1.85;;;;;;;28.14;32.41;99456.47;12233914;19;20010;-85
2022/06/21 11:36:17;;;;;;;4.63;2.00;;;;;;;27.90;32.30;99451.13;12188632;19;20438;-84
2022/06/21 11:40:41;;;;;;;1.55;1.35;;;;;;;28.12;32.62;99452.38;12216902;19;20018;-90
2022/06/21 11:45:12;;;;;;;4.47;1.98;;;;;;;28.58;31.87;99450.34;12193167;19;20019;-85
2022/06/21 11:49:53;;;;;;;3.80;1.60;;;;;;;28.74;30.67;99441.72;12200123;19;20387;-81
2022/06/21 11:54:20;;;;;;;2.20;1.40;;;;;;;29.05;32.14;99434.91;12229366;19;20015;-83
2022/06/21 12:03:49;;;;;;;2.33;1.90;;;;;;;29.33;29.91;99425.16;12213592;19;20098;-83
2022/06/21 12:09:08;;;;;;;5.35;2.13;;;;;;;29.90;30.06;99408.00;12190553;19;20003;-83
2022/06/21 12:13:35;;;;;;;4.30;1.92;;;;;;;30.14;29.31;99415.13;12208633;19;20011;-83
2022/06/21 12:17:59;;;;;;;4.60;2.00;;;;;;;30.44;29.78;99403.66;12196141;19;20936;-82
2022/06/21 12:22:30;;;;;;;6.05;2.35;;;;;;;31.55;28.53;99402.28;12206838;19;20006;-83
2022/06/21 12:26:34;;;;;;;23.40;4.18;;;;;;;32.40;26.92;99394.31;12181518;19;20011;-85
2022/06/21 12:30:36;;;;;;;4.93;1.98;;;;;;;32.15;25.99;99378.00;12197913;19;20046;-84
2022/06/21 12:34:55;;;;;;;;;;;;;;;31.53;26.90;99372.56;12186888;19;20022;-84
2022/06/21 12:39:03;;;;;;;3.28;2.05;;;;;;;30.80;28.08;99359.22;12195293;19;19918;-84
2022/06/21 12:43:20;;;;;;;4.65;1.83;;;;;;;30.91;28.26;99353.59;12203678;19;20371;-84
2022/06/21 12:47:54;;;;;;;3.85;1.80;;;;;;;30.96;27.89;99347.53;12179873;19;20014;-84
2022/06/21 12:52:03;;;;;;;5.05;1.73;;;;;;;30.79;27.73;99360.44;12206789;19;20090;-84
2022/06/21 12:56:34;;;;;;;2.25;1.60;;;;;;;30.62;27.61;99361.13;12182338;19;20015;-83
2022/06/21 13:00:59;;;;;;;2.75;1.67;;;;;;;31.40;26.62;99342.84;12202346;19;20051;-85
2022/06/21 13:10:09;;;;;;;3.65;1.85;;;;;;;31.82;26.12;99336.44;12208934;19;19928;-83
2022/06/21 13:15:28;;;;;;;4.13;1.63;;;;;;;31.42;26.27;99343.28;12187111;19;20365;-82
2022/06/21 13:19:42;;;;;;;3.58;1.80;;;;;;;33.38;25.20;99333.75;12192011;19;20374;-84
2022/06/21 13:24:13;;;;;;;5.82;1.77;;;;;;;34.71;23.41;99310.69;12204917;19;20007;-83
2022/06/21 13:28:44;;;;;;;7.95;1.98;;;;;;;34.09;22.39;99309.66;12209982;19;20014;-85
2022/06/21 13:32:52;;;;;;;6.07;2.45;;;;;;;34.55;22.89;99296.16;12187789;19;20527;-83
2022/06/21 13:36:59;;;;;;;4.75;1.77;;;;;;;34.29;22.57;99286.97;12209117;19;20007;-85
2022/06/21 13:45:59;;;;;;;7.00;2.50;;;;;;;33.62;23.37;99289.16;12210125;19;20507;-84
2022/06/21 13:50:05;;;;;;;;;;;;;;;34.05;23.64;99288.84;12191904;19;20457;-83
2022/06/21 13:54:21;;;;;;;5.05;2.10;;;;;;;35.33;22.20;99300.13;12211769;19;19923;-82
2022/06/21 13:58:35;;;;;;;5.40;3.58;;;;;;;36.21;20.79;99284.84;12210908;19;20077;-83
2022/06/21 14:02:49;;;;;;;5.07;1.98;;;;;;;36.93;20.16;99292.91;12189767;19;20505;-84
2022/06/21 14:07:02;;;;;;;3.45;1.60;;;;;;;38.13;19.01;99292.66;12206724;19;20027;-83
2022/06/21 14:11:17;;;;;;;2.88;1.52;;;;;;;39.07;18.58;99277.38;12184189;19;20006;-82
2022/06/21 14:15:39;;;;;;;2.97;1.60;;;;;;;40.14;18.12;99279.72;12212675;19;20032;-83
2022/06/21 14:19:49;;;;;;;2.95;1.75;;;;;;;40.57;17.46;99277.41;12186332;19;20003;-83
2022/06/21 14:23:59;;;;;;;2.78;1.83;;;;;;;40.80;16.58;99268.31;12183933;19;20472;-82
2022/06/21 14:28:46;;;;;;;6.35;4.53;;;;;;;41.44;16.28;99267.94;12247950;19;20007;-83
2022/06/21 14:33:16;;;;;;;2.33;1.60;;;;;;;42.19;15.11;99238.78;12188971;19;20010;-83
2022/06/21 14:37:24;;;;;;;;;;;;;;;41.96;15.74;99236.50;12207214;19;20019;-83
2022/06/21 14:41:58;;;;;;;2.28;1.58;;;;;;;41.62;15.21;99247.78;12190919;19;19915;-84
2022/06/21 14:46:00;;;;;;;6.95;1.88;;;;;;;42.13;15.15;99249.41;12209914;19;20017;-84
2022/06/21 14:50:12;;;;;;;3.50;1.80;;;;;;;41.86;14.96;99245.13;12189538;19;20026;-83
2022/06/21 14:54:36;;;;;;;4.35;1.75;;;;;;;42.32;14.72;99230.78;12205925;19;20007;-82
2022/06/21 14:58:58;;;;;;;3.47;1.55;;;;;;;42.22;15.18;99234.13;12198158;19;20078;-84
2022/06/21 15:03:38;;;;;;;3.17;1.65;;;;;;;41.31;15.14;99232.53;12212729;19;20068;-82
2022/06/21 15:07:51;;;;;;;5.35;1.70;;;;;;;38.80;16.63;99212.28;12188917;19;20080;-83
2022/06/21 15:12:00;;;;;;;2.45;1.77;;;;;;;37.39;17.96;99210.66;12210857;19;20350;-83
2022/06/21 15:16:29;;;;;;;4.30;2.00;;;;;;;35.94;18.88;99201.75;12209786;19;20014;-84
2022/06/21 15:20:43;;;;;;;4.05;1.90;;;;;;;37.66;18.20;99204.69;12195145;19;20002;-83
2022/06/21 15:24:48;;;;;;;5.18;2.10;;;;;;;38.05;17.33;99191.38;12226968;19;20011;-84
2022/06/21 15:29:03;;;;;;;5.22;2.15;;;;;;;36.53;18.89;99185.91;12185104;19;20018;-83
2022/06/21 15:33:12;;;;;;;4.22;2.25;;;;;;;35.39;19.66;99183.81;12215073;19;20093;-82
2022/06/21 15:37:32;;;;;;;4.30;2.10;;;;;;;33.81;20.86;99196.34;12200186;19;20014;-80
2022/06/21 15:41:43;;;;;;;3.42;2.22;;;;;;;32.12;22.35;99178.50;12196304;19;20799;-83
2022/06/21 15:46:18;;;;;;;5.57;2.13;;;;;;;31.30;23.65;99173.63;12203502;19;20373;-84
2022/06/21 15:50:53;;;;;;;5.68;2.78;;;;;;;30.68;24.36;99179.56;12187606;19;20007;-85
2022/06/21 15:55:11;;;;;;;4.13;2.00;;;;;;;30.14;24.55;99185.78;12207039;19;20010;-83
2022/06/21 15:59:29;;;;;;;2.30;1.85;;;;;;;29.94;24.95;99185.25;12188020;19;20014;-83
2022/06/21 16:03:34;;;;;;;5.60;1.83;;;;;;;29.85;25.17;99178.31;12213469;19;20015;-82
2022/06/21 16:07:49;;;;;;;7.03;1.60;;;;;;;29.83;25.41;99173.00;12179266;19;20018;-84
2022/06/21 16:11:55;;;;;;;3.17;2.00;;;;;;;29.73;25.64;99162.41;12200454;19;20010;-84
2022/06/21 16:16:01;;;;;;;3.72;1.85;;;;;;;29.55;25.57;99156.56;12210817;19;20030;-82
2022/06/21 16:20:25;;;;;;;3.45;1.58;;;;;;;29.44;26.28;99156.47;12194143;19;20389;-84
2022/06/21 16:24:42;;;;;;;3.65;1.73;;;;;;;29.20;26.08;99148.56;12213147;19;20464;-83
2022/06/21 16:28:45;;;;;;;5.80;2.17;;;;;;;29.02;26.40;99145.56;12189517;19;20479;-84
2022/06/21 16:33:22;;;;;;;5.38;1.77;;;;;;;28.61;27.92;99142.66;12213434;19;20007;-83
2022/06/21 16:37:29;;;;;;;3.08;1.98;;;;;;;28.25;27.98;99142.19;12208073;19;20007;-83
2022/06/21 16:46:04;;;;;;;2.47;1.60;;;;;;;27.98;28.25;99149.91;12205392;19;20035;-80
2022/06/21 16:50:24;;;;;;;2.47;1.75;;;;;;;27.99;28.36;99150.72;12179070;19;20068;-82
2022/06/21 16:54:38;;;;;;;7.28;1.65;;;;;;;28.02;28.60;99164.97;12210656;19;20006;-82
2022/06/21 16:58:42;;;;;;;5.30;1.92;;;;;;;27.92;27.94;99148.63;12184603;19;20010;-82
2022/06/21 17:02:48;;;;;;;6.15;2.53;;;;;;;27.94;28.06;99151.91;12209188;19;20043;-82
2022/06/21 17:06:54;;;;;;;3.70;1.90;;;;;;;27.92;28.83;99157.94;12209539;19;20015;-82
2022/06/21 17:15:36;;;;;;;5.63;2.00;;;;;;;27.81;29.03;99156.97;12199946;19;20780;-83
2022/06/21 17:19:55;;;;;;;4.68;2.25;;;;;;;27.83;29.00;99154.56;12187846;19;20440;-82
2022/06/21 17:24:11;;;;;;;4.05;1.88;;;;;;;27.84;28.75;99152.53;12215041;19;20011;-82
2022/06/21 17:28:30;;;;;;;3.42;1.92;;;;;;;27.90;28.96;99159.50;12209431;19;20031;-83
2022/06/21 17:32:52;;;;;;;3.70;1.60;;;;;;;27.80;29.18;99160.19;12189140;19;20013;-82
2022/06/21 17:37:43;;;;;;;4.45;2.10;;;;;;;27.80;28.92;99155.31;12197155;19;20002;-81
2022/06/21 17:41:58;;;;;;;4.20;2.00;;;;;;;27.76;28.95;99145.13;12184709;19;20011;-82
2022/06/21 17:46:05;;;;;;;3.95;2.47;;;;;;;27.73;29.27;99139.03;12213128;19;20535;-82
2022/06/21 17:50:18;;;;;;;7.10;2.05;;;;;;;27.71;29.44;99132.13;12192894;19;20514;-82
2022/06/21 17:54:32;;;;;;;7.18;1.83;;;;;;;27.63;29.35;99131.19;12206551;19;20010;-82
2022/06/21 17:58:38;;;;;;;3.10;1.67;;;;;;;27.58;29.63;99128.69;12192236;19;20007;-83
2022/06/21 18:03:10;;;;;;;4.22;2.20;;;;;;;27.50;29.76;99121.28;12226823;19;20006;-80
2022/06/21 18:07:50;;;;;;;2.78;1.77;;;;;;;27.25;30.26;99127.38;12233643;19;20010;-82
2022/06/21 18:12:54;;;;;;;2.17;1.77;;;;;;;27.16;30.07;99131.66;12181761;19;20059;-86
2022/06/21 18:17:21;;;;;;;3.97;2.20;;;;;;;27.15;30.58;99133.63;12184855;19;20508;-84
2022/06/21 18:21:32;;;;;;;3.25;1.88;;;;;;;27.13;30.82;99130.38;12212965;19;20042;-82
2022/06/21 18:25:56;;;;;;;6.13;1.85;;;;;;;27.11;31.10;99129.09;12186898;19;20435;-81
2022/06/21 18:30:20;;;;;;;3.75;1.77;;;;;;;27.18;30.52;99134.91;12215293;19;20107;-83
2022/06/21 18:34:22;;;;;;;6.47;1.88;;;;;;;27.25;30.73;99130.19;12221139;19;20014;-83
2022/06/21 18:38:42;;;;;;;;;;;;;;;27.21;30.93;99134.13;12196729;19;20430;-82
2022/06/21 18:42:50;;;;;;;3.70;1.80;;;;;;;27.12;30.87;99137.19;12218541;19;19910;-82
2022/06/21 18:47:01;;;;;;;4.57;2.22;;;;;;;27.03;31.35;99136.63;12196915;19;20010;-83
2022/06/21 18:51:17;;;;;;;5.25;2.15;;;;;;;26.83;31.25;99141.53;12207672;19;20530;-82
2022/06/21 18:55:46;;;;;;;7.75;1.90;;;;;;;26.68;31.93;99139.59;12222325;19;20010;-82
2022/06/21 19:00:04;;;;;;;3.53;2.05;;;;;;;26.52;31.95;99136.88;12193769;19;20014;-82
2022/06/21 19:08:28;;;;;;;5.32;1.80;;;;;;;26.34;31.29;99148.59;12209743;19;20019;-83
2022/06/21 19:09:18;;;;;;;3.92;1.88;;;;;;;26.14;32.02;99149.78;12186845;19;20023;-82
2022/06/21 19:13:22;;;;;;;6.70;1.65;;;;;;;25.90;32.58;99146.03;12212915;19;20043;-82
2022/06/21 19:17:43;;;;;;;2.88;1.90;;;;;;;25.62;33.15;99137.72;12184763;19;20011;-82
2022/06/21 19:22:22;;;;;;;6.55;2.00;;;;;;;25.30;33.43;99151.03;12218435;19;20081;-82
2022/06/21 19:26:32;;;;;;;5.50;1.85;;;;;;;24.98;34.39;99153.81;12190268;19;20015;-80
2022/06/21 19:31:04;;;;;;;4.03;2.15;;;;;;;24.70;34.64;99155.88;12211456;19;20027;-81
2022/06/21 19:35:41;;;;;;;3.83;1.92;;;;;;;24.42;35.48;99162.34;12192421;19;20024;-83
2022/06/21 19:39:59;;;;;;;5.18;2.40;;;;;;;24.13;35.57;99160.66;12215667;19;20399;-81
2022/06/21 19:44:56;;;;;;;5.47;1.92;;;;;;;23.91;35.75;99170.44;12207666;19;20010;-80
2022/06/21 19:49:01;;;;;;;2.83;1.73;;;;;;;23.67;36.44;99160.81;12229552;19;20010;-87
2022/06/21 19:53:03;;;;;;;2.58;1.67;;;;;;;23.41;36.75;99160.38;12211392;19;20041;-80
2022/06/21 19:57:34;;;;;;;4.35;2.30;;;;;;;23.14;38.12;99168.34;12238629;19;20010;-82
2022/06/21 20:01:37;;;;;;;3.03;2.05;;;;;;;22.94;37.87;99164.44;12213473;19;20718;-80
2022/06/21 20:05:40;;;;;;;4.72;1.92;;;;;;;22.75;38.18;99167.75;12240508;19;20011;-81
2022/06/21 20:09:44;;;;;;;3.78;2.10;;;;;;;22.58;38.09;99176.34;12226468;19;20054;-82
2022/06/21 20:14:09;;;;;;;3.03;2.10;;;;;;;22.39;38.70;99190.06;12206653;19;20737;-80
2022/06/21 20:18:15;;;;;;;5.72;1.92;;;;;;;22.28;38.64;99189.69;12219060;19;20006;-80
2022/06/21 20:22:52;;;;;;;6.50;1.60;;;;;;;22.14;39.02;99184.31;12224960;19;20046;-80
2022/06/21 20:27:46;;;;;;;3.38;1.80;;;;;;;22.04;39.59;99193.13;12199972;19;20124;-82
2022/06/21 20:32:04;;;;;;;2.83;1.70;;;;;;;21.91;39.37;99202.63;12199336;19;20459;-80
2022/06/21 20:36:10;;;;;;;3.85;2.13;;;;;;;21.77;40.17;99194.47;12221128;19;20096;-80
2022/06/21 20:40:21;;;;;;;3.80;2.00;;;;;;;21.67;41.23;99198.47;12214335;19;20078;-80
2022/06/21 20:44:28;;;;;;;4.43;2.00;;;;;;;21.60;41.04;99198.19;12197086;19;20078;-81
2022/06/21 20:48:46;;;;;;;3.55;2.15;;;;;;;21.49;41.25;99197.75;12229544;19;20017;-79
2022/06/21 20:52:47;;;;;;;4.13;2.13;;;;;;;21.35;41.58;99197.94;12198985;19;20364;-81
2022/06/21 20:57:06;;;;;;;5.47;2.10;;;;;;;21.24;42.69;99207.91;12230764;19;20019;-80
2022/06/21 21:01:17;;;;;;;3.50;1.67;;;;;;;21.08;43.45;99204.81;12221644;19;20007;-81
2022/06/21 21:06:01;;;;;;;3.20;1.90;;;;;;;21.00;43.45;99196.44;12206596;19;20014;-80
2022/06/21 21:10:27;;;;;;;4.23;1.83;;;;;;;20.88;43.93;99199.91;12215957;19;20015;-80
2022/06/21 21:14:55;;;;;;;3.05;1.63;;;;;;;20.78;43.92;99209.50;12210393;19;20805;-80